createdAt,value
2023-03-13T00:01:39.362Z,99259.25
2023-03-13T00:06:44.115Z,99255.53
2023-03-13T00:11:47.872Z,99259.13
2023-03-13T00:16:51.251Z,99263.22
2023-03-13T00:21:56.015Z,99269.75
2023-03-13T00:27:03.331Z,99262.41
2023-03-13T00:32:08.325Z,99264.41
2023-03-13T00:37:13.193Z,99265.88
2023-03-13T00:42:16.513Z,99257.75
2023-03-13T00:47:20.185Z,99267.56
2023-03-13T00:52:28.252Z,99259.16
2023-03-13T00:57:31.981Z,99265.44
2023-03-13T01:02:35.706Z,99265.44
2023-03-13T01:07:40.924Z,99269.00
2023-03-13T01:12:44.612Z,99267.88
2023-03-13T01:17:48.049Z,99274.75
2023-03-13T01:22:52.811Z,99284.56
2023-03-13T01:27:56.326Z,99278.63
2023-03-13T01:32:59.908Z,99280.16
2023-03-13T01:38:04.726Z,99279.28
2023-03-13T01:43:26.626Z,99297.69
2023-03-13T01:48:41.786Z,99297.19
2023-03-13T01:53:51.654Z,99305.69
2023-03-13T01:58:57.716Z,99310.81
2023-03-13T02:04:01.838Z,99319.16
2023-03-13T02:09:10.315Z,99323.94
2023-03-13T02:14:14.653Z,99345.88
2023-03-13T02:19:26.104Z,99348.03
2023-03-13T02:24:39.108Z,99352.28
2023-03-13T02:29:44.928Z,99359.31
2023-03-13T02:34:51.353Z,99364.47
2023-03-13T02:39:57.675Z,99365.63
2023-03-13T02:45:02.660Z,99364.84
2023-03-13T02:50:07.138Z,99364.97
2023-03-13T02:55:14.252Z,99375.09
2023-03-13T03:00:20.924Z,99378.72
2023-03-13T03:05:24.806Z,99383.22
2023-03-13T03:10:28.405Z,99390.25
2023-03-13T03:15:33.724Z,99393.03
2023-03-13T03:20:37.239Z,99403.16
2023-03-13T03:25:40.748Z,99404.13
2023-03-13T03:30:45.824Z,99407.41
2023-03-13T03:35:50.119Z,99425.34
2023-03-13T03:40:53.691Z,99424.91
2023-03-13T03:45:58.902Z,99431.63
2023-03-13T03:51:03.506Z,99442.97
2023-03-13T03:56:09.345Z,99448.16
2023-03-13T04:01:19.131Z,99451.53
2023-03-13T04:06:22.940Z,99457.22
2023-03-13T04:11:26.532Z,99471.13
2023-03-13T04:16:34.155Z,99474.81
2023-03-13T04:21:39.724Z,99482.81
2023-03-13T04:26:54.923Z,99496.53
2023-03-13T04:31:59.971Z,99486.69
2023-03-13T04:37:20.807Z,99494.63
2023-03-13T04:42:49.172Z,99498.28
2023-03-13T04:48:24.418Z,99501.66
2023-03-13T04:53:50.083Z,99507.72
2023-03-13T04:59:25.746Z,99520.09
2023-03-13T05:04:56.454Z,99528.88
2023-03-13T05:10:07.628Z,99541.47
2023-03-13T05:15:11.685Z,99538.16
2023-03-13T05:20:31.281Z,99535.66
2023-03-13T05:25:45.470Z,99548.50
2023-03-13T05:31:09.090Z,99552.63
2023-03-13T05:36:37.075Z,99562.94
2023-03-13T05:42:08.574Z,99550.69
2023-03-13T05:47:27.021Z,99556.56
2023-03-13T05:52:58.423Z,99559.63
2023-03-13T05:58:28.207Z,99550.03
2023-03-13T06:03:45.588Z,99568.16
2023-03-13T06:08:53.137Z,99567.25
2023-03-13T06:13:58.180Z,99569.91
2023-03-13T06:19:20.252Z,99569.56
2023-03-13T06:24:25.223Z,99573.06
2023-03-13T06:29:28.839Z,99575.31
2023-03-13T06:34:32.184Z,99570.78
2023-03-13T06:39:37.284Z,99569.59
2023-03-13T06:44:41.722Z,99569.28
2023-03-13T06:49:45.167Z,99579.88
2023-03-13T06:54:50.031Z,99575.09
2023-03-13T06:59:53.788Z,99572.38
2023-03-13T07:04:57.215Z,99579.88
2023-03-13T07:10:02.042Z,99574.19
2023-03-13T07:15:07.345Z,99578.25
2023-03-13T07:20:12.745Z,99568.84
2023-03-13T07:25:18.054Z,99564.84
2023-03-13T07:30:21.916Z,99566.09
2023-03-13T07:35:25.369Z,99566.09
2023-03-13T07:40:30.125Z,99566.34
2023-03-13T07:45:33.595Z,99558.03
2023-03-13T07:50:37.047Z,99553.84
2023-03-13T07:55:42.332Z,99555.56
2023-03-13T08:00:45.673Z,99560.97
2023-03-13T08:05:49.316Z,99561.00
2023-03-13T08:10:54.463Z,99547.97
2023-03-13T08:16:05.815Z,99551.44
2023-03-13T08:21:10.690Z,99553.22
2023-03-13T08:26:16.975Z,99548.78
2023-03-13T08:31:22.548Z,99538.13
2023-03-13T08:36:27.462Z,99543.59
2023-03-13T08:41:36.237Z,99543.38
2023-03-13T08:46:40.115Z,99544.22
2023-03-13T08:51:43.759Z,99542.47
2023-03-13T08:56:48.649Z,99543.91
2023-03-13T09:01:52.049Z,99548.28
2023-03-13T09:06:55.542Z,99549.88
2023-03-13T09:12:00.339Z,99543.84
2023-03-13T09:17:04.770Z,99548.44
2023-03-13T09:22:08.338Z,99559.53
2023-03-13T09:27:13.348Z,99550.03
2023-03-13T09:32:17.114Z,99548.50
2023-03-13T09:37:20.752Z,99538.56
2023-03-13T09:42:35.937Z,99534.63
2023-03-13T09:47:45.757Z,99538.72
2023-03-13T09:52:52.042Z,99534.16
2023-03-13T09:58:01.206Z,99536.13
2023-03-13T10:03:14.248Z,99523.13
2023-03-13T10:08:20.271Z,99506.31
2023-03-13T10:13:34.312Z,99502.81
2023-03-13T10:18:50.071Z,99505.63
2023-03-13T10:23:57.608Z,99500.28
2023-03-13T10:29:18.485Z,99501.28
2023-03-13T10:34:22.035Z,99502.44
2023-03-13T10:39:27.117Z,99507.53
2023-03-13T10:44:35.067Z,99488.22
2023-03-13T10:49:50.034Z,99486.91
2023-03-13T10:55:00.497Z,99493.66
2023-03-13T11:00:26.551Z,99483.53
2023-03-13T11:05:38.474Z,99456.31
2023-03-13T11:10:55.021Z,99457.81
2023-03-13T11:16:04.584Z,99456.72
2023-03-13T11:21:17.634Z,99447.06
2023-03-13T11:26:30.068Z,99440.97
2023-03-13T11:31:39.092Z,99436.34
2023-03-13T11:36:49.332Z,99422.28
2023-03-13T11:42:01.414Z,99418.00
2023-03-13T11:47:22.034Z,99418.50
2023-03-13T11:52:44.396Z,99411.63
2023-03-13T11:57:55.834Z,99408.13
2023-03-13T12:03:06.104Z,99414.44
2023-03-13T12:08:17.589Z,99395.91
2023-03-13T12:13:26.897Z,99405.00
2023-03-13T12:18:38.472Z,99397.50
2023-03-13T12:23:48.120Z,99393.31
2023-03-13T12:29:05.268Z,99393.47
2023-03-13T12:34:18.294Z,99393.38
2023-03-13T12:39:34.467Z,99394.94
2023-03-13T12:44:38.026Z,99398.84
2023-03-13T12:50:05.116Z,99396.34
2023-03-13T12:55:32.973Z,99394.97
2023-03-13T13:00:40.214Z,99400.53
2023-03-13T13:06:00.653Z,99388.88
2023-03-13T13:11:56.437Z,99394.41
2023-03-13T13:17:16.604Z,99387.47
2023-03-13T13:22:49.305Z,99397.56
2023-03-13T13:27:53.555Z,99393.97
2023-03-13T13:32:58.140Z,99394.56
2023-03-13T13:38:41.135Z,99393.78
2023-03-13T13:43:48.152Z,99380.31
2023-03-13T13:49:15.384Z,99390.66
2023-03-13T13:54:56.368Z,99385.50
2023-03-13T14:00:07.007Z,99386.63
2023-03-13T14:05:19.764Z,99390.00
2023-03-13T14:10:38.096Z,99390.94
2023-03-13T14:15:44.976Z,99397.16
2023-03-13T15:28:02.090Z,99387.59
2023-03-13T16:01:35.632Z,99401.47
2023-03-13T16:06:39.667Z,99404.75
2023-03-13T16:11:43.672Z,99394.22
2023-03-13T16:16:50.033Z,99399.13
2023-03-13T16:21:54.214Z,99405.72
2023-03-13T16:26:58.075Z,99413.94
2023-03-13T16:32:03.941Z,99419.69
2023-03-13T16:37:13.630Z,99435.56
2023-03-13T16:42:18.358Z,99433.66
2023-03-13T16:47:28.710Z,99437.72
2023-03-13T16:52:33.037Z,99437.38
2023-03-13T16:57:37.692Z,99438.38
2023-03-13T17:02:43.922Z,99440.56
2023-03-13T17:07:49.896Z,99448.59
2023-03-13T17:12:54.164Z,99448.81
2023-03-13T17:18:00.651Z,99461.56
2023-03-13T17:23:05.194Z,99461.22
2023-03-13T17:28:14.453Z,99468.41
2023-03-13T17:33:20.460Z,99475.41
2023-03-13T17:38:52.888Z,99471.72
2023-03-13T17:44:36.963Z,99482.72
2023-03-13T18:03:04.373Z,99482.63
2023-03-13T18:53:52.454Z,99479.75
2023-03-13T18:58:57.405Z,99480.06
2023-03-13T19:04:02.218Z,99483.34
2023-03-13T19:09:37.693Z,99474.41
2023-03-13T19:14:36.674Z,99468.75
2023-03-13T19:19:41.752Z,99461.69
2023-03-13T19:24:45.171Z,99465.44
2023-03-13T19:29:48.569Z,99466.66
2023-03-13T19:34:53.763Z,99463.25
2023-03-13T19:39:57.216Z,99459.91
2023-03-13T19:45:00.587Z,99473.69
2023-03-13T19:50:06.667Z,99468.81
2023-03-13T19:55:10.667Z,99466.72
2023-03-13T20:00:21.327Z,99460.97
2023-03-13T20:05:27.388Z,99458.44
2023-03-13T20:10:31.142Z,99454.13
2023-03-13T20:15:34.511Z,99450.13
2023-03-13T20:20:39.332Z,99450.25
2023-03-13T20:25:42.922Z,99448.91
2023-03-13T20:30:48.637Z,99444.16
2023-03-13T20:35:58.219Z,99444.69
2023-03-13T20:41:02.095Z,99435.59
2023-03-13T20:46:07.172Z,99440.94
2023-03-13T20:51:12.136Z,99430.56
2023-03-13T20:56:15.520Z,99433.28
2023-03-13T21:01:19.759Z,99423.59
2023-03-13T21:06:25.084Z,99409.38
2023-03-13T21:11:28.651Z,99405.44
2023-03-13T21:16:32.051Z,99403.31
2023-03-13T21:21:36.888Z,99405.22
2023-03-13T21:26:40.261Z,99405.06
2023-03-13T21:31:44.144Z,99414.72
2023-03-13T21:36:48.895Z,99415.84
2023-03-13T21:41:52.554Z,99410.97
2023-03-13T21:46:56.386Z,99405.25
2023-03-13T21:52:01.330Z,99404.22
2023-03-13T21:57:04.898Z,99405.03
2023-03-13T22:02:08.769Z,99399.63
2023-03-13T22:07:13.787Z,99406.88
2023-03-13T22:12:18.431Z,99402.84
2023-03-13T22:17:22.250Z,99398.97
2023-03-13T22:22:27.248Z,99388.16
2023-03-13T22:27:30.911Z,99392.03
2023-03-13T22:32:34.363Z,99380.50
2023-03-13T22:37:39.164Z,99381.00
2023-03-13T22:42:42.826Z,99378.91
2023-03-13T22:47:46.299Z,99376.94
2023-03-13T22:52:51.098Z,99383.69
2023-03-13T22:57:54.943Z,99370.16
2023-03-13T23:02:58.392Z,99362.06
2023-03-13T23:08:03.103Z,99354.56
2023-03-13T23:13:06.873Z,99353.66
2023-03-13T23:18:10.975Z,99344.59
2023-03-13T23:23:15.783Z,99339.44
2023-03-13T23:28:19.175Z,99326.59
2023-03-13T23:33:22.902Z,99322.72
2023-03-13T23:38:27.936Z,99318.31
2023-03-13T23:43:31.358Z,99317.44
2023-03-13T23:48:34.992Z,99302.97
2023-03-13T23:53:41.051Z,99301.69
2023-03-13T23:58:44.904Z,99290.59
